Terminal Aerodrome Forecast
Issued by NWS Cleveland, OH

Home | Current Version | Previous Version | Graphics & Text | Print | Product List | Glossary On
Versions: 1 2 3 4 5 6 7 8 9 10 11 12 13 14 15 16 17 18 19 20
000
FTUS41 KCLE 301136
TAFCAK
TAF
KCAK 301136Z 3012/0112 23007KT 3SM BR BKN003 OVC015
     FM301300 20006KT 4SM BR BKN005 OVC015
     FM301500 20008KT P6SM BKN015
     FM301900 22010KT P6SM -SHRA BKN025
      TEMPO 3019/3023 3SM TSRA OVC015CB
     FM010000 21007KT P6SM BKN250
     FM010800 24005KT 4SM BR OVC007=

USA.gov is the U.S. government's official web portal to all federal, state and local government web resources and services.